Time;durP1;ratioP1;P1;durP2;ratioP2;P2;SDS_P1;SDS_P2;PMS_P1;PMS_P2;Temp;Humidity;BMP_temperature;BMP_pressure;BME280_temperature;BME280_humidity;BME280_pressure;Samples;Min_cycle;Max_cycle;Signal;HPM_P1;HPM_P2
2022/02/15 00:00:34;;;;;;;7.75;2.78;;;9.70;99.90;;;;;;2103160;28;20070;-70
2022/02/15 00:01:36;;;;;;;8.80;2.55;;;9.70;99.90;;;;;;2109173;28;20049;-70
2022/02/15 00:02:37;;;;;;;5.93;2.50;;;9.70;99.90;;;;;;2106409;28;20035;-70
2022/02/15 00:03:37;;;;;;;7.95;2.65;;;9.70;99.90;;;;;;2107867;28;20555;-70
2022/02/15 00:04:38;;;;;;;9.00;2.60;;;9.70;99.90;;;;;;2108358;28;20436;-70
2022/02/15 00:05:38;;;;;;;5.78;2.65;;;9.70;99.90;;;;;;2105641;28;20056;-70
2022/02/15 00:06:39;;;;;;;8.20;2.35;;;9.70;99.90;;;;;;2106574;28;20065;-70
2022/02/15 00:07:40;;;;;;;5.63;2.53;;;9.70;99.90;;;;;;2104577;28;20471;-70
2022/02/15 00:08:40;;;;;;;7.43;2.30;;;9.70;99.90;;;;;;2103197;28;20532;-70
2022/02/15 00:09:41;;;;;;;5.38;2.55;;;9.70;99.90;;;;;;2110040;28;20027;-70
2022/02/15 00:10:41;;;;;;;7.13;3.00;;;9.70;99.90;;;;;;2107472;28;20020;-71
2022/02/15 00:11:42;;;;;;;6.15;2.78;;;9.70;99.90;;;;;;2107647;28;20016;-70
2022/02/15 00:12:42;;;;;;;8.93;2.63;;;9.70;99.90;;;;;;2107778;28;20095;-70
2022/02/15 00:13:43;;;;;;;7.07;2.70;;;9.70;99.90;;;;;;2105165;28;20032;-70
2022/02/15 00:14:44;;;;;;;10.98;2.60;;;9.70;99.90;;;;;;2104236;28;20019;-70
2022/02/15 00:15:45;;;;;;;5.30;2.20;;;9.70;99.90;;;;;;2105374;28;20016;-70
2022/02/15 00:16:45;;;;;;;4.43;2.47;;;9.70;99.90;;;;;;2103701;28;20433;-70
2022/02/15 00:17:46;;;;;;;4.68;2.70;;;9.70;99.90;;;;;;2109908;28;20368;-70
2022/02/15 00:18:46;;;;;;;8.95;3.10;;;9.70;99.90;;;;;;2108631;28;20028;-70
2022/02/15 00:19:47;;;;;;;7.03;3.17;;;9.70;99.90;;;;;;2108343;28;20024;-70
2022/02/15 00:20:47;;;;;;;8.20;2.30;;;9.70;99.90;;;;;;2103956;28;20448;-70
2022/02/15 00:21:48;;;;;;;5.35;2.53;;;9.70;99.90;;;;;;2104824;28;20491;-70
2022/02/15 00:22:48;;;;;;;7.15;2.70;;;9.70;99.90;;;;;;2103937;28;20055;-70
2022/02/15 00:23:49;;;;;;;8.15;2.75;;;9.70;99.90;;;;;;2103193;28;20028;-70
2022/02/15 00:24:50;;;;;;;6.80;2.97;;;9.60;99.90;;;;;;2103364;28;20020;-70
2022/02/15 00:25:50;;;;;;;8.77;2.75;;;9.70;99.90;;;;;;2109433;28;20052;-70
2022/02/15 00:26:51;;;;;;;9.00;2.70;;;9.70;99.90;;;;;;2108387;28;20057;-70
2022/02/15 00:27:53;;;;;;;6.82;2.80;;;9.70;99.90;;;;;;2107310;28;20099;-71
2022/02/15 00:28:53;;;;;;;7.20;2.75;;;9.70;99.90;;;;;;2103990;28;20522;-70
2022/02/15 00:29:54;;;;;;;8.77;3.38;;;9.70;99.90;;;;;;2107920;28;20345;-70
2022/02/15 00:30:54;;;;;;;10.88;2.60;;;9.70;99.90;;;;;;2100966;28;20024;-70
2022/02/15 00:31:55;;;;;;;6.95;2.83;;;9.70;99.90;;;;;;2102696;28;20056;-70
2022/02/15 00:32:56;;;;;;;11.88;3.17;;;9.70;99.90;;;;;;2103161;28;20100;-70
2022/02/15 00:33:56;;;;;;;8.75;3.08;;;9.70;99.90;;;;;;2108837;28;20031;-70
2022/02/15 00:34:57;;;;;;;8.45;3.00;;;9.70;99.90;;;;;;2108956;28;20409;-70
2022/02/15 00:35:57;;;;;;;7.82;3.20;;;9.70;99.90;;;;;;2106666;28;20047;-70
2022/02/15 00:36:58;;;;;;;8.77;3.15;;;9.70;99.90;;;;;;2104558;28;20023;-70
2022/02/15 00:37:58;;;;;;;13.50;3.38;;;9.70;99.90;;;;;;2105725;28;20076;-70
2022/02/15 00:38:59;;;;;;;9.07;2.67;;;9.70;99.90;;;;;;2104033;28;20036;-70
2022/02/15 00:39:59;;;;;;;6.22;2.70;;;9.70;99.90;;;;;;2103558;28;20032;-70
2022/02/15 00:41:00;;;;;;;7.13;2.63;;;9.70;99.90;;;;;;2102932;28;20036;-70
2022/02/15 00:42:00;;;;;;;8.68;2.95;;;9.70;99.90;;;;;;2106385;28;20046;-70
2022/02/15 00:43:01;;;;;;;8.75;2.65;;;9.70;99.90;;;;;;2104764;28;20039;-70
2022/02/15 00:44:02;;;;;;;6.70;2.47;;;9.60;99.90;;;;;;2107962;28;20122;-70
2022/02/15 00:45:04;;;;;;;10.27;2.78;;;9.60;99.90;;;;;;2105728;28;20434;-70
2022/02/15 00:46:05;;;;;;;7.05;3.20;;;9.60;99.90;;;;;;2105296;28;20024;-70
2022/02/15 00:47:05;;;;;;;8.52;3.38;;;9.60;99.90;;;;;;2103339;28;20017;-70
2022/02/15 00:48:07;;;;;;;10.48;2.83;;;9.60;99.90;;;;;;2105656;28;20062;-70
2022/02/15 00:49:07;;;;;;;7.82;3.30;;;9.60;99.90;;;;;;2101614;28;20013;-70
2022/02/15 00:50:08;;;;;;;7.22;2.65;;;9.60;99.90;;;;;;2104811;28;20029;-70
2022/02/15 00:51:09;;;;;;;7.05;2.83;;;9.60;99.90;;;;;;2105638;28;20024;-70
2022/02/15 00:52:09;;;;;;;6.47;2.95;;;9.60;99.90;;;;;;2102110;28;20063;-70
2022/02/15 00:53:10;;;;;;;7.30;2.53;;;9.60;99.90;;;;;;2106914;28;20072;-70
2022/02/15 00:54:10;;;;;;;8.52;3.08;;;9.50;99.90;;;;;;2104714;28;20032;-70
2022/02/15 00:55:13;;;;;;;7.25;2.70;;;9.50;99.90;;;;;;2102778;28;20028;-70
2022/02/15 00:56:13;;;;;;;8.18;2.83;;;9.50;99.90;;;;;;2105787;28;20094;-70
2022/02/15 00:57:15;;;;;;;10.43;2.90;;;9.50;99.90;;;;;;2103557;28;20051;-70
2022/02/15 00:58:16;;;;;;;7.10;2.50;;;9.50;99.90;;;;;;2108426;28;20055;-70
2022/02/15 00:59:16;;;;;;;8.80;2.95;;;9.50;99.90;;;;;;2103905;28;20031;-70
2022/02/15 01:00:17;;;;;;;8.07;3.17;;;9.50;99.90;;;;;;2107341;28;20055;-70
2022/02/15 01:01:18;;;;;;;9.45;4.05;;;9.50;99.90;;;;;;2106070;28;20411;-70
2022/02/15 01:02:18;;;;;;;12.50;5.35;;;9.50;99.90;;;;;;2103250;28;20028;-70
2022/02/15 01:03:19;;;;;;;9.55;5.10;;;9.50;99.90;;;;;;2103027;28;20364;-70
2022/02/15 01:04:19;;;;;;;12.75;4.88;;;9.50;99.90;;;;;;2104465;28;20073;-70
2022/02/15 01:05:20;;;;;;;10.63;4.50;;;9.50;99.90;;;;;;2104595;28;20457;-70
2022/02/15 01:06:20;;;;;;;10.07;3.88;;;9.40;99.90;;;;;;2102025;28;20078;-70
2022/02/15 01:07:21;;;;;;;6.03;3.35;;;9.50;99.90;;;;;;2109626;28;20020;-70
2022/02/15 01:08:21;;;;;;;7.72;3.35;;;9.50;99.90;;;;;;2107591;28;20069;-70
2022/02/15 01:09:22;;;;;;;8.48;3.67;;;9.50;99.90;;;;;;2108635;28;20373;-70
2022/02/15 01:10:23;;;;;;;5.90;2.72;;;9.50;99.90;;;;;;2105683;28;20086;-70
2022/02/15 01:11:23;;;;;;;8.77;3.47;;;9.50;99.90;;;;;;2097954;28;20052;-70
2022/02/15 01:12:24;;;;;;;7.75;3.38;;;9.40;99.90;;;;;;2102698;28;20019;-70
2022/02/15 01:13:24;;;;;;;7.50;2.97;;;9.40;99.90;;;;;;2110091;28;20472;-70
2022/02/15 01:14:25;;;;;;;11.32;3.25;;;9.50;99.90;;;;;;2109539;28;20054;-70
2022/02/15 01:15:26;;;;;;;6.82;3.00;;;9.40;99.90;;;;;;2105687;28;20440;-70
2022/02/15 01:16:26;;;;;;;10.07;3.85;;;9.50;99.90;;;;;;2107573;28;20366;-70
2022/02/15 01:17:27;;;;;;;7.93;3.65;;;9.50;99.90;;;;;;2108833;28;20012;-70
2022/02/15 01:18:28;;;;;;;8.18;3.60;;;9.40;99.90;;;;;;2105047;28;20069;-70
2022/02/15 01:19:29;;;;;;;8.43;3.47;;;9.40;99.90;;;;;;2107076;28;20432;-70
2022/02/15 01:20:30;;;;;;;7.45;3.22;;;9.50;99.90;;;;;;2110900;28;20020;-70
2022/02/15 01:21:31;;;;;;;9.00;3.63;;;9.50;99.90;;;;;;2106012;28;20456;-70
2022/02/15 01:22:31;;;;;;;7.90;3.05;;;9.40;99.90;;;;;;2108049;28;20031;-70
2022/02/15 01:23:32;;;;;;;6.80;2.92;;;9.40;99.90;;;;;;2103898;28;20401;-70
2022/02/15 01:24:33;;;;;;;9.43;3.22;;;9.50;99.90;;;;;;2106295;28;20123;-70
2022/02/15 01:25:33;;;;;;;7.68;3.17;;;9.50;99.90;;;;;;2107523;28;20032;-70
2022/02/15 01:26:34;;;;;;;8.65;3.58;;;9.40;99.90;;;;;;2106083;28;20047;-70
2022/02/15 01:27:35;;;;;;;11.70;3.25;;;9.40;99.90;;;;;;2104420;28;20024;-70
2022/02/15 01:28:35;;;;;;;9.27;3.65;;;9.50;99.90;;;;;;2105089;28;20461;-70
2022/02/15 01:29:36;;;;;;;7.20;3.67;;;9.40;99.90;;;;;;2109935;28;20027;-70
2022/02/15 01:30:37;;;;;;;8.27;3.45;;;9.40;99.90;;;;;;2110086;28;20134;-70
2022/02/15 01:31:38;;;;;;;10.38;3.67;;;9.40;99.90;;;;;;2105783;28;20023;-70
2022/02/15 01:32:38;;;;;;;9.43;3.70;;;9.40;99.90;;;;;;2108925;28;20047;-70
2022/02/15 01:33:39;;;;;;;8.30;3.45;;;9.40;99.90;;;;;;2106150;28;20023;-70
2022/02/15 01:34:39;;;;;;;7.07;3.17;;;9.40;99.90;;;;;;2106102;28;20407;-70
2022/02/15 01:35:40;;;;;;;8.98;3.78;;;9.40;99.90;;;;;;2105345;28;20016;-70
2022/02/15 01:36:41;;;;;;;7.15;3.10;;;9.30;99.90;;;;;;2106847;28;20650;-70
2022/02/15 01:37:42;;;;;;;8.60;3.55;;;9.40;99.90;;;;;;2105373;28;20480;-70
2022/02/15 01:38:43;;;;;;;9.63;3.63;;;9.30;99.90;;;;;;2108717;28;20543;-70
2022/02/15 01:39:43;;;;;;;10.85;4.03;;;9.30;99.90;;;;;;2107851;28;20016;-70
2022/02/15 01:40:44;;;;;;;9.38;3.50;;;9.30;99.90;;;;;;2106885;28;20525;-70
2022/02/15 01:41:45;;;;;;;7.38;3.05;;;9.40;99.90;;;;;;2104126;28;20028;-70
2022/02/15 01:42:45;;;;;;;8.82;3.65;;;9.30;99.90;;;;;;2106312;28;20016;-70
2022/02/15 01:43:49;;;;;;;12.82;4.38;;;9.40;99.90;;;;;;2104751;28;20381;-70
2022/02/15 01:44:49;;;;;;;7.90;4.15;;;9.40;99.90;;;;;;2108683;28;20033;-70
2022/02/15 01:45:50;;;;;;;7.13;3.65;;;9.30;99.90;;;;;;2109699;28;20031;-70
2022/02/15 01:46:51;;;;;;;8.50;4.18;;;9.30;99.90;;;;;;2107305;28;20060;-70
2022/02/15 01:47:52;;;;;;;9.98;3.92;;;9.30;99.90;;;;;;2109041;28;20058;-70
2022/02/15 01:48:52;;;;;;;11.32;3.47;;;9.30;99.90;;;;;;2101849;28;20029;-70
2022/02/15 01:49:53;;;;;;;8.57;3.25;;;9.30;99.90;;;;;;2106610;28;20028;-70
2022/02/15 01:50:58;;;;;;;8.15;3.88;;;9.30;99.90;;;;;;2106246;28;20050;-71
2022/02/15 01:51:59;;;;;;;9.13;3.58;;;9.30;99.90;;;;;;2107087;28;20024;-70
2022/02/15 01:52:59;;;;;;;11.98;4.07;;;9.30;99.90;;;;;;2108271;28;20057;-70
2022/02/15 01:54:00;;;;;;;7.80;3.75;;;9.30;99.90;;;;;;2110333;28;20108;-71
2022/02/15 01:55:02;;;;;;;7.28;3.40;;;9.30;99.90;;;;;;2108706;28;20016;-70
2022/02/15 01:56:05;;;;;;;9.23;4.30;;;9.30;99.90;;;;;;2108098;28;20105;-70
2022/02/15 01:57:06;;;;;;;8.15;3.85;;;9.30;99.90;;;;;;2103290;28;20070;-70
2022/02/15 01:58:07;;;;;;;7.38;3.83;;;9.30;99.90;;;;;;2107800;28;20024;-70
2022/02/15 01:59:08;;;;;;;10.98;3.90;;;9.30;99.90;;;;;;2104996;28;20145;-70
2022/02/15 02:00:12;;;;;;;7.78;3.60;;;9.30;99.90;;;;;;2105202;28;20035;-70
2022/02/15 02:01:12;;;;;;;10.82;3.97;;;9.30;99.90;;;;;;2108189;28;20020;-70
2022/02/15 02:02:14;;;;;;;7.72;3.90;;;9.30;99.90;;;;;;2106285;28;20025;-70
2022/02/15 02:03:15;;;;;;;9.57;3.63;;;9.30;99.90;;;;;;2105088;28;20114;-70
2022/02/15 02:05:50;;;;;;;8.25;3.70;;;9.30;99.90;;;;;;2105269;28;20028;-70
2022/02/15 02:06:50;;;;;;;10.48;4.13;;;9.30;99.90;;;;;;2106018;28;20028;-70
2022/02/15 02:07:51;;;;;;;9.75;3.80;;;9.20;99.90;;;;;;2103569;28;20028;-70
2022/02/15 02:08:52;;;;;;;9.55;3.78;;;9.20;99.90;;;;;;2110212;28;20024;-70
2022/02/15 02:09:54;;;;;;;10.80;4.13;;;9.20;99.90;;;;;;2106142;28;20028;-70
2022/02/15 02:10:55;;;;;;;14.52;4.35;;;9.30;99.90;;;;;;2104237;28;20040;-70
2022/02/15 02:11:57;;;;;;;9.60;4.68;;;9.30;99.90;;;;;;2107839;28;20044;-70
2022/02/15 02:12:57;;;;;;;6.35;3.80;;;9.20;99.90;;;;;;2105850;28;20021;-70
2022/02/15 02:13:58;;;;;;;7.07;4.25;;;9.20;99.90;;;;;;2107897;28;20471;-70
2022/02/15 02:15:04;;;;;;;8.75;4.70;;;9.20;99.90;;;;;;2103574;28;20056;-70
2022/02/15 02:16:05;;;;;;;11.40;5.05;;;9.20;99.90;;;;;;2104249;28;20067;-70
2022/02/15 02:17:05;;;;;;;13.73;4.32;;;9.20;99.90;;;;;;2109333;28;20531;-70
2022/02/15 02:18:06;;;;;;;11.48;4.30;;;9.20;99.90;;;;;;2106280;28;20466;-70
2022/02/15 02:19:07;;;;;;;13.05;4.32;;;9.20;99.90;;;;;;2101920;28;20051;-70
2022/02/15 02:20:08;;;;;;;11.57;4.18;;;9.20;99.90;;;;;;2106224;28;20032;-70
2022/02/15 02:21:08;;;;;;;7.30;3.72;;;9.20;99.90;;;;;;2102884;28;20047;-70
2022/02/15 02:22:09;;;;;;;11.65;5.22;;;9.20;99.90;;;;;;2107454;28;20028;-70
2022/02/15 02:23:14;;;;;;;13.18;4.78;;;9.20;99.90;;;;;;2102993;28;20036;-70
2022/02/15 02:24:14;;;;;;;10.07;4.15;;;9.30;99.90;;;;;;2105505;28;20031;-70
2022/02/15 02:25:17;;;;;;;8.98;4.20;;;9.20;99.90;;;;;;2109183;28;20032;-70
2022/02/15 02:26:18;;;;;;;13.93;4.05;;;9.30;99.90;;;;;;2107172;28;20038;-70
2022/02/15 02:27:27;;;;;;;11.38;5.22;;;9.30;99.90;;;;;;2108767;28;20031;-70
2022/02/15 02:28:29;;;;;;;9.88;4.45;;;9.30;99.90;;;;;;2104807;28;20422;-70
2022/02/15 02:29:29;;;;;;;11.40;4.80;;;9.30;99.90;;;;;;2104857;28;20484;-70
2022/02/15 02:30:30;;;;;;;8.90;4.72;;;9.30;99.90;;;;;;2106405;28;20024;-70
2022/02/15 02:31:30;;;;;;;13.93;5.28;;;9.30;99.90;;;;;;2101737;28;20024;-70
2022/02/15 02:32:32;;;;;;;12.30;5.07;;;9.30;99.90;;;;;;2110057;28;20023;-70
2022/02/15 02:33:32;;;;;;;10.55;5.00;;;9.30;99.90;;;;;;2109711;28;20034;-70
2022/02/15 02:34:33;;;;;;;9.00;4.82;;;9.20;99.90;;;;;;2107607;28;20012;-70
2022/02/15 02:35:35;;;;;;;11.10;5.05;;;9.30;99.90;;;;;;2108276;28;20056;-70
2022/02/15 02:36:48;;;;;;;8.57;5.03;;;9.20;99.90;;;;;;2105215;28;20476;-70
2022/02/15 02:37:49;;;;;;;12.25;5.15;;;9.30;99.90;;;;;;2104857;28;20089;-70
2022/02/15 02:38:49;;;;;;;8.80;4.78;;;9.20;99.90;;;;;;2104053;28;20166;-70
2022/02/15 02:39:52;;;;;;;11.98;5.82;;;9.20;99.90;;;;;;2109421;28;20024;-70
2022/02/15 02:40:53;;;;;;;12.60;5.03;;;9.20;99.90;;;;;;2109597;28;20042;-70
2022/02/15 02:41:54;;;;;;;10.88;5.15;;;9.20;99.90;;;;;;2105136;28;20055;-70
2022/02/15 02:42:55;;;;;;;10.98;5.43;;;9.20;99.90;;;;;;2101616;28;20032;-70
2022/02/15 02:43:55;;;;;;;10.60;4.93;;;9.20;99.90;;;;;;2105938;28;20549;-70
2022/02/15 02:45:02;;;;;;;8.32;4.78;;;9.20;99.90;;;;;;2108261;28;20063;-70
2022/02/15 02:46:03;;;;;;;11.30;5.32;;;9.20;99.90;;;;;;2106826;28;20053;-70
2022/02/15 02:47:05;;;;;;;10.38;4.97;;;9.20;99.90;;;;;;2103488;28;20059;-70
2022/02/15 02:48:06;;;;;;;10.25;5.05;;;9.20;99.90;;;;;;2109174;28;20023;-70
2022/02/15 02:49:06;;;;;;;14.02;5.55;;;9.20;99.90;;;;;;2101456;28;20129;-70
2022/02/15 02:50:07;;;;;;;9.30;5.45;;;9.20;99.90;;;;;;2104214;28;20025;-70
2022/02/15 02:51:07;;;;;;;11.15;5.30;;;9.20;99.90;;;;;;2103029;28;20131;-70
2022/02/15 02:52:08;;;;;;;8.82;5.10;;;9.30;99.90;;;;;;2107908;28;20023;-70
2022/02/15 02:53:10;;;;;;;8.95;5.20;;;9.30;99.90;;;;;;2107673;28;20376;-70
2022/02/15 02:54:11;;;;;;;7.47;5.32;;;9.30;99.90;;;;;;2104053;28;20031;-70
2022/02/15 02:55:12;;;;;;;9.45;5.65;;;9.30;99.90;;;;;;2104972;28;20025;-70
2022/02/15 02:56:12;;;;;;;9.68;6.00;;;9.30;99.90;;;;;;2110442;28;20067;-70
2022/02/15 02:57:13;;;;;;;11.65;6.05;;;9.30;99.90;;;;;;2107758;28;20405;-70
2022/02/15 02:58:14;;;;;;;12.50;5.70;;;9.30;99.90;;;;;;2107368;28;20021;-70
2022/02/15 02:59:15;;;;;;;10.57;5.97;;;9.20;99.90;;;;;;2107932;28;20028;-70
2022/02/15 03:00:16;;;;;;;7.68;5.25;;;9.20;99.90;;;;;;2104791;28;20050;-70
2022/02/15 03:01:17;;;;;;;8.40;5.57;;;9.30;99.90;;;;;;2095226;28;20024;-70
2022/02/15 03:02:18;;;;;;;10.02;5.93;;;9.30;99.90;;;;;;2104295;28;21450;-71
2022/02/15 03:03:18;;;;;;;11.02;5.63;;;9.20;99.90;;;;;;2108009;28;20120;-71
2022/02/15 03:04:19;;;;;;;9.52;5.20;;;9.20;99.90;;;;;;2108732;28;20428;-70
2022/02/15 03:05:20;;;;;;;9.23;5.53;;;9.30;99.90;;;;;;2106671;28;20011;-70
2022/02/15 03:06:21;;;;;;;12.45;5.80;;;9.20;99.90;;;;;;2107484;28;20030;-70
2022/02/15 03:07:22;;;;;;;9.27;5.43;;;9.30;99.90;;;;;;2107949;28;20383;-70
2022/02/15 03:08:22;;;;;;;13.57;5.70;;;9.30;99.90;;;;;;2105027;28;20172;-70
2022/02/15 03:09:23;;;;;;;9.38;5.95;;;9.30;99.90;;;;;;2106914;28;20061;-70
2022/02/15 03:10:23;;;;;;;11.68;6.28;;;9.20;99.90;;;;;;2103214;28;20035;-70
2022/02/15 03:11:24;;;;;;;9.52;5.47;;;9.20;99.90;;;;;;2109030;28;20027;-70
2022/02/15 03:12:25;;;;;;;10.35;6.80;;;9.20;99.90;;;;;;2109905;28;20056;-70
2022/02/15 03:13:26;;;;;;;13.63;6.32;;;9.20;99.90;;;;;;2107879;28;20048;-70
2022/02/15 03:14:26;;;;;;;7.93;5.82;;;9.20;99.90;;;;;;2108917;28;20026;-70
2022/02/15 03:15:27;;;;;;;12.40;6.30;;;9.20;99.90;;;;;;2104230;28;20012;-70
2022/02/15 03:16:28;;;;;;;9.50;5.97;;;9.20;99.90;;;;;;2105087;28;20016;-70
2022/02/15 03:17:28;;;;;;;11.85;6.53;;;9.20;99.90;;;;;;2104962;28;20035;-70
2022/02/15 03:18:29;;;;;;;13.57;6.47;;;9.20;99.90;;;;;;2106164;28;20036;-70
2022/02/15 03:19:29;;;;;;;13.95;6.75;;;9.20;99.90;;;;;;2107892;28;20098;-70
2022/02/15 03:20:30;;;;;;;10.27;6.38;;;9.20;99.90;;;;;;2109732;28;20413;-70
2022/02/15 03:21:30;;;;;;;13.75;6.85;;;9.30;99.90;;;;;;2108987;28;20151;-70
2022/02/15 03:22:31;;;;;;;14.10;6.95;;;9.30;99.90;;;;;;2107449;28;20059;-70
2022/02/15 03:23:31;;;;;;;14.05;7.00;;;9.30;99.90;;;;;;2100853;28;20460;-70
2022/02/15 03:24:33;;;;;;;13.05;7.72;;;9.30;99.90;;;;;;2104542;28;20020;-70
2022/02/15 03:25:33;;;;;;;17.27;7.90;;;9.30;99.90;;;;;;2104740;28;20029;-70
2022/02/15 03:26:34;;;;;;;11.30;8.52;;;9.30;99.90;;;;;;2105675;28;20123;-70
2022/02/15 03:27:35;;;;;;;14.30;8.63;;;9.30;99.90;;;;;;2110081;28;20023;-70
2022/02/15 03:28:36;;;;;;;13.15;8.48;;;9.30;99.90;;;;;;2105818;28;20028;-70
2022/02/15 03:29:36;;;;;;;12.27;8.48;;;9.30;99.90;;;;;;2107613;28;20019;-70
2022/02/15 03:30:37;;;;;;;10.52;8.32;;;9.30;99.90;;;;;;2108524;28;20020;-70
2022/02/15 03:31:41;;;;;;;15.77;9.55;;;9.20;99.90;;;;;;2102296;28;20361;-70
2022/02/15 03:32:42;;;;;;;13.70;8.68;;;9.30;99.90;;;;;;2105979;28;20368;-70
2022/02/15 03:33:44;;;;;;;10.35;8.70;;;9.20;99.90;;;;;;2103938;28;20114;-70
2022/02/15 03:34:44;;;;;;;14.13;8.63;;;9.20;99.90;;;;;;2104479;28;20066;-70
2022/02/15 03:35:45;;;;;;;14.13;8.85;;;9.20;99.90;;;;;;2109766;28;20020;-70
2022/02/15 03:36:45;;;;;;;14.40;8.63;;;9.20;99.90;;;;;;2106586;28;20027;-70
2022/02/15 03:37:46;;;;;;;13.38;9.45;;;9.20;99.90;;;;;;2105118;28;20024;-70
2022/02/15 03:38:47;;;;;;;20.13;10.68;;;9.20;99.90;;;;;;2106555;28;20059;-70
2022/02/15 03:39:47;;;;;;;13.05;10.10;;;9.20;99.90;;;;;;2105427;28;20196;-70
2022/02/15 03:43:26;;;;;;;11.70;9.77;;;9.10;99.90;;;;;;2108107;28;20027;-70
2022/02/15 03:44:27;;;;;;;17.83;10.07;;;9.10;99.90;;;;;;2107469;28;20515;-70
2022/02/15 03:45:27;;;;;;;15.63;9.90;;;9.10;99.90;;;;;;2107258;28;20608;-70
2022/02/15 03:46:28;;;;;;;17.88;10.77;;;9.10;99.90;;;;;;2108059;28;20046;-70
2022/02/15 03:47:28;;;;;;;16.00;9.73;;;9.10;99.90;;;;;;2107179;28;20024;-70
2022/02/15 03:48:29;;;;;;;12.43;10.43;;;9.10;99.90;;;;;;2106479;28;20044;-70
2022/02/15 03:49:29;;;;;;;10.82;9.48;;;9.10;99.90;;;;;;2100943;28;20020;-70
2022/02/15 03:50:30;;;;;;;12.50;9.57;;;9.10;99.90;;;;;;2105117;28;20027;-70
2022/02/15 03:51:30;;;;;;;13.90;9.95;;;9.20;99.90;;;;;;2106250;28;20027;-70
2022/02/15 03:52:31;;;;;;;13.30;10.00;;;9.20;99.90;;;;;;2104636;28;20479;-70
2022/02/15 03:53:31;;;;;;;18.40;10.75;;;9.10;99.90;;;;;;2108788;28;20024;-70
2022/02/15 03:54:32;;;;;;;14.10;10.35;;;9.20;99.90;;;;;;2105520;28;20101;-70
2022/02/15 03:55:33;;;;;;;18.75;9.98;;;9.20;99.90;;;;;;2107375;28;20023;-70
2022/02/15 03:56:34;;;;;;;15.50;10.05;;;9.20;99.90;;;;;;2104017;28;20521;-70
2022/02/15 03:57:35;;;;;;;14.27;10.30;;;9.10;99.90;;;;;;2103912;28;20024;-70
2022/02/15 03:58:37;;;;;;;17.30;10.27;;;9.20;99.90;;;;;;2109558;28;20018;-70
2022/02/15 03:59:37;;;;;;;17.77;11.85;;;9.20;99.90;;;;;;2109594;28;20107;-70
2022/02/15 04:00:38;;;;;;;15.18;10.60;;;9.20;99.90;;;;;;2108622;28;20926;-70
2022/02/15 04:01:39;;;;;;;18.10;10.82;;;9.20;99.90;;;;;;2108626;28;20024;-70
2022/02/15 04:02:39;;;;;;;16.50;11.45;;;9.20;99.90;;;;;;2104291;28;20024;-70
2022/02/15 04:03:40;;;;;;;13.02;10.25;;;9.20;99.90;;;;;;2103436;28;20020;-70
2022/02/15 04:04:40;;;;;;;21.15;11.48;;;9.20;99.90;;;;;;2103997;28;20162;-70
2022/02/15 04:05:41;;;;;;;14.25;10.30;;;9.20;99.90;;;;;;2102611;28;20530;-70
2022/02/15 04:06:42;;;;;;;15.32;10.82;;;9.20;99.90;;;;;;2100733;28;20036;-70
2022/02/15 04:07:42;;;;;;;13.77;11.23;;;9.20;99.90;;;;;;2107796;28;20031;-70
2022/02/15 04:08:43;;;;;;;15.10;11.43;;;9.20;99.90;;;;;;2106098;28;20448;-70
2022/02/15 04:09:43;;;;;;;16.33;11.10;;;9.20;99.90;;;;;;2105445;28;20032;-70
2022/02/15 04:10:44;;;;;;;14.20;10.65;;;9.20;99.90;;;;;;2103160;28;20135;-70
2022/02/15 04:11:44;;;;;;;14.55;10.20;;;9.20;99.90;;;;;;2104393;28;20038;-70
2022/02/15 04:12:46;;;;;;;16.35;10.77;;;9.20;99.90;;;;;;2103162;28;20016;-70
2022/02/15 04:13:47;;;;;;;13.63;10.95;;;9.20;99.90;;;;;;2103970;28;20043;-70
2022/02/15 04:14:48;;;;;;;14.57;10.80;;;9.20;99.90;;;;;;2108242;28;20020;-70
2022/02/15 04:15:49;;;;;;;16.20;11.23;;;9.20;99.90;;;;;;2102719;28;20031;-70
2022/02/15 04:16:49;;;;;;;15.10;10.63;;;9.20;99.90;;;;;;2106016;28;20019;-70
2022/02/15 04:17:50;;;;;;;14.15;10.93;;;9.20;99.90;;;;;;2104861;28;20020;-70
2022/02/15 04:18:50;;;;;;;19.52;11.57;;;9.20;99.90;;;;;;2103573;28;20039;-70
2022/02/15 04:19:51;;;;;;;16.33;12.13;;;9.20;99.90;;;;;;2102069;28;20127;-70
2022/02/15 04:20:52;;;;;;;13.57;10.57;;;9.20;99.90;;;;;;2101533;28;20468;-70
2022/02/15 04:21:52;;;;;;;14.45;11.63;;;9.20;99.90;;;;;;2103724;28;20036;-70
2022/02/15 04:22:53;;;;;;;17.27;12.18;;;9.20;99.90;;;;;;2100454;28;20106;-70
2022/02/15 04:23:53;;;;;;;16.02;10.32;;;9.20;99.90;;;;;;2100784;28;20521;-70
2022/02/15 04:24:54;;;;;;;15.73;11.93;;;9.20;99.90;;;;;;2104469;28;20036;-70
2022/02/15 04:25:54;;;;;;;19.38;12.45;;;9.20;99.90;;;;;;2105681;28;20532;-70
2022/02/15 04:26:55;;;;;;;19.73;12.02;;;9.20;99.90;;;;;;2104566;28;20025;-70
2022/02/15 04:27:55;;;;;;;14.85;11.00;;;9.30;99.90;;;;;;2101376;28;20025;-70
2022/02/15 04:28:56;;;;;;;14.93;11.10;;;9.30;99.90;;;;;;2100872;28;20031;-70
2022/02/15 04:29:57;;;;;;;15.40;11.02;;;9.30;99.90;;;;;;2100462;28;20376;-70
2022/02/15 04:30:58;;;;;;;13.30;11.10;;;9.20;99.90;;;;;;2107323;28;20027;-70
2022/02/15 04:31:59;;;;;;;17.25;11.43;;;9.20;99.90;;;;;;2105742;28;20059;-70
2022/02/15 04:32:59;;;;;;;15.90;12.20;;;9.20;99.90;;;;;;2106327;28;20046;-70
2022/02/15 04:34:00;;;;;;;13.85;11.90;;;9.20;99.90;;;;;;2103598;28;21016;-70
2022/02/15 04:35:00;;;;;;;16.63;12.10;;;9.20;99.90;;;;;;2105377;28;20031;-70
2022/02/15 04:36:01;;;;;;;18.42;11.77;;;9.20;99.90;;;;;;2101782;28;20020;-70
2022/02/15 04:37:01;;;;;;;15.95;11.60;;;9.20;99.90;;;;;;2103944;28;20040;-70
2022/02/15 04:38:02;;;;;;;17.17;11.40;;;9.20;99.90;;;;;;2105639;28;20095;-70
2022/02/15 04:39:03;;;;;;;18.45;12.80;;;9.20;99.90;;;;;;2107617;28;20040;-70
2022/02/15 04:40:05;;;;;;;15.75;12.23;;;9.20;99.90;;;;;;2106744;28;20036;-70
2022/02/15 04:41:05;;;;;;;16.38;11.70;;;9.20;99.90;;;;;;2098141;28;20021;-70
2022/02/15 04:42:06;;;;;;;15.52;11.70;;;9.20;99.90;;;;;;2105358;28;20125;-70
2022/02/15 04:43:07;;;;;;;17.85;12.40;;;9.20;99.90;;;;;;2102039;28;20032;-70
2022/02/15 04:44:07;;;;;;;15.70;11.25;;;9.20;99.90;;;;;;2104397;28;20107;-70
2022/02/15 04:45:08;;;;;;;15.15;12.00;;;9.20;99.90;;;;;;2104334;28;20518;-70
2022/02/15 04:46:09;;;;;;;16.08;12.50;;;9.10;99.90;;;;;;2103192;28;20031;-70
2022/02/15 04:47:10;;;;;;;16.05;12.45;;;9.10;99.90;;;;;;2107392;28;20477;-70
2022/02/15 04:48:10;;;;;;;15.88;12.50;;;9.10;99.90;;;;;;2106380;28;20423;-70
2022/02/15 04:49:11;;;;;;;15.05;12.10;;;9.10;99.90;;;;;;2098323;28;20029;-70
2022/02/15 04:50:11;;;;;;;13.82;12.05;;;9.10;99.90;;;;;;2101913;28;20488;-70
2022/02/15 04:51:12;;;;;;;16.00;12.20;;;9.10;99.90;;;;;;2103884;28;20432;-70
2022/02/15 04:52:12;;;;;;;17.23;12.07;;;9.10;99.90;;;;;;2101934;28;20013;-70
2022/02/15 04:53:13;;;;;;;16.17;12.25;;;9.10;99.90;;;;;;2104241;28;20035;-70
2022/02/15 04:54:16;;;;;;;17.05;12.05;;;9.10;99.90;;;;;;2104336;28;20025;-70
2022/02/15 04:55:17;;;;;;;19.00;12.95;;;9.10;99.90;;;;;;2106323;28;20080;-70
2022/02/15 04:56:18;;;;;;;18.42;13.10;;;9.10;99.90;;;;;;2106780;28;20053;-70
2022/02/15 04:57:18;;;;;;;13.90;12.38;;;9.10;99.90;;;;;;2103422;28;20019;-70
2022/02/15 04:58:19;;;;;;;17.35;12.65;;;9.10;99.90;;;;;;2103486;28;20460;-70
2022/02/15 04:59:21;;;;;;;17.27;12.63;;;9.00;99.90;;;;;;2104462;28;20024;-70
2022/02/15 05:00:21;;;;;;;18.40;12.18;;;9.10;99.90;;;;;;2100834;28;20036;-70
2022/02/15 05:01:22;;;;;;;17.02;12.60;;;9.00;99.90;;;;;;2104246;28;20020;-70
2022/02/15 05:02:22;;;;;;;13.35;10.65;;;9.10;99.90;;;;;;2103797;28;20368;-70
2022/02/15 05:03:23;;;;;;;18.98;13.02;;;9.10;99.90;;;;;;2106403;28;20486;-70
2022/02/15 05:05:43;;;;;;;20.85;12.80;;;9.10;99.90;;;;;;2102635;28;20308;-70
2022/02/15 05:06:43;;;;;;;20.13;13.00;;;9.00;99.90;;;;;;2104672;28;20016;-70
2022/02/15 05:07:44;;;;;;;19.38;12.40;;;9.00;99.90;;;;;;2105038;28;20106;-70
2022/02/15 05:08:44;;;;;;;21.13;12.95;;;9.00;99.90;;;;;;2104835;28;20032;-70
2022/02/15 05:09:46;;;;;;;16.88;12.48;;;9.00;99.90;;;;;;2102877;28;20073;-70
2022/02/15 05:10:47;;;;;;;16.02;11.88;;;9.00;99.90;;;;;;2105916;28;20046;-70
2022/02/15 05:11:47;;;;;;;18.92;12.50;;;9.00;99.90;;;;;;2107738;28;20049;-70
2022/02/15 05:12:48;;;;;;;18.58;12.85;;;9.00;99.90;;;;;;2107287;28;20016;-70
2022/02/15 05:13:49;;;;;;;17.55;12.40;;;9.00;99.90;;;;;;2106886;28;20023;-70
2022/02/15 05:14:49;;;;;;;15.57;11.60;;;9.00;99.90;;;;;;2105247;28;20100;-70
2022/02/15 05:15:50;;;;;;;16.65;12.80;;;9.00;99.90;;;;;;2103644;28;20032;-70
2022/02/15 05:16:51;;;;;;;17.27;11.70;;;9.00;99.90;;;;;;2102469;28;20380;-70
2022/02/15 05:17:51;;;;;;;16.35;11.90;;;9.00;99.90;;;;;;2097834;28;20469;-70
2022/02/15 05:18:52;;;;;;;17.00;11.90;;;9.00;99.90;;;;;;2100508;28;20029;-70
2022/02/15 05:19:52;;;;;;;20.80;12.23;;;9.10;99.90;;;;;;2102008;28;20549;-70
2022/02/15 05:20:53;;;;;;;19.00;12.77;;;9.10;99.90;;;;;;2100888;28;20027;-70
2022/02/15 05:21:54;;;;;;;15.85;12.88;;;9.10;99.90;;;;;;2100694;28;20043;-70
2022/02/15 05:22:54;;;;;;;19.02;12.98;;;9.00;99.90;;;;;;2101388;28;20036;-70